createdAt,value
2022-12-04T00:00:28.078Z,100904.16
2022-12-04T00:02:54.831Z,100912.59
2022-12-04T00:05:21.422Z,100906.38
2022-12-04T00:07:48.125Z,100900.53
2022-12-04T00:10:14.845Z,100912.00
2022-12-04T00:12:41.398Z,100909.00
2022-12-04T00:15:25.907Z,100908.00
2022-12-04T00:17:53.162Z,100909.31
2022-12-04T00:20:19.849Z,100913.00
2022-12-04T00:22:46.390Z,100906.69
2022-12-04T00:25:12.909Z,100906.56
2022-12-04T00:27:39.491Z,100914.28
2022-12-04T00:30:06.805Z,100904.44
2022-12-04T00:32:34.619Z,100908.13
2022-12-04T00:35:01.301Z,100901.56
2022-12-04T00:37:28.212Z,100897.13
2022-12-04T00:39:55.124Z,100906.28
2022-12-04T00:42:22.521Z,100903.00
2022-12-04T00:44:49.246Z,100896.25
2022-12-04T00:47:15.819Z,100891.41
2022-12-04T00:49:42.389Z,100885.97
2022-12-04T00:52:09.038Z,100888.41
2022-12-04T00:54:35.547Z,100887.25
2022-12-04T00:57:02.566Z,100887.53
2022-12-04T00:59:29.091Z,100890.22
2022-12-04T01:01:55.605Z,100883.97
2022-12-04T01:04:22.196Z,100896.41
2022-12-04T01:06:48.754Z,100892.56
2022-12-04T01:09:15.314Z,100892.97
2022-12-04T01:11:41.942Z,100890.81
2022-12-04T01:14:08.503Z,100888.66
2022-12-04T01:16:39.017Z,100878.81
2022-12-04T01:19:08.827Z,100878.78
2022-12-04T01:21:36.762Z,100878.63
2022-12-04T01:24:03.557Z,100885.81
2022-12-04T01:26:30.365Z,100882.22
2022-12-04T01:28:57.093Z,100879.94
2022-12-04T01:31:24.033Z,100893.13
2022-12-04T01:33:51.288Z,100886.84
2022-12-04T01:36:27.946Z,100885.09
2022-12-04T01:38:55.512Z,100889.66
2022-12-04T01:41:25.963Z,100892.66
2022-12-04T01:44:13.349Z,100891.25
2022-12-04T01:46:41.847Z,100892.56
2022-12-04T01:49:13.277Z,100894.25
2022-12-04T01:51:44.136Z,100898.84
2022-12-04T01:54:17.264Z,100889.25
2022-12-04T01:56:51.989Z,100899.41
2022-12-04T01:59:22.337Z,100894.53
2022-12-04T02:01:59.367Z,100898.44
2022-12-04T02:04:26.305Z,100892.25
2022-12-04T02:06:52.948Z,100895.53
2022-12-04T02:09:26.190Z,100887.53
2022-12-04T02:12:12.662Z,100884.66
2022-12-04T02:14:46.250Z,100878.50
2022-12-04T02:17:33.230Z,100877.94
2022-12-04T02:20:11.510Z,100878.78
2022-12-04T02:23:14.152Z,100873.94
2022-12-04T02:25:59.115Z,100864.75
2022-12-04T02:28:57.534Z,100857.88
2022-12-04T02:31:42.889Z,100860.75
2022-12-04T02:34:15.308Z,100864.47
2022-12-04T02:37:01.217Z,100860.63
2022-12-04T02:39:50.119Z,100867.75
2022-12-04T02:42:22.125Z,100874.22
2022-12-04T02:45:04.350Z,100868.50
2022-12-04T02:47:33.164Z,100871.06
2022-12-04T02:50:03.128Z,100859.91
2022-12-04T02:52:34.652Z,100859.19
2022-12-04T02:55:20.085Z,100862.19
2022-12-04T02:57:51.635Z,100859.19
2022-12-04T03:00:19.527Z,100857.34
2022-12-04T03:02:53.895Z,100856.03
2022-12-04T03:05:27.713Z,100860.03
2022-12-04T03:07:59.947Z,100863.88
2022-12-04T03:10:34.387Z,100851.31
2022-12-04T03:13:19.888Z,100853.59
2022-12-04T03:16:01.601Z,100861.31
2022-12-04T03:18:42.370Z,100859.03
2022-12-04T03:21:20.164Z,100862.47
2022-12-04T03:24:14.260Z,100862.75
2022-12-04T03:26:45.742Z,100860.91
2022-12-04T03:29:36.602Z,100863.31
2022-12-04T03:32:18.294Z,100866.34
2022-12-04T03:34:53.600Z,100863.06
2022-12-04T03:37:23.708Z,100863.47
2022-12-04T03:39:59.543Z,100868.63
2022-12-04T03:42:51.495Z,100865.63
2022-12-04T03:45:29.038Z,100877.38
2022-12-04T03:48:23.382Z,100875.50
2022-12-04T03:50:57.911Z,100877.38
2022-12-04T03:53:39.275Z,100869.50
2022-12-04T03:56:17.313Z,100867.22
2022-12-04T03:58:48.624Z,100872.50
2022-12-04T04:01:20.155Z,100867.06
2022-12-04T04:03:50.674Z,100872.50
2022-12-04T04:06:29.808Z,100861.50
2022-12-04T04:09:01.019Z,100870.78
2022-12-04T04:11:43.144Z,100863.91
2022-12-04T04:14:34.502Z,100864.91
2022-12-04T04:17:25.837Z,100863.59
2022-12-04T04:20:17.953Z,100867.50
2022-12-04T04:23:07.737Z,100862.63
2022-12-04T04:25:38.395Z,100868.50
2022-12-04T04:28:05.045Z,100860.47
2022-12-04T04:30:34.033Z,100875.38
2022-12-04T04:33:13.073Z,100879.06
2022-12-04T04:35:52.810Z,100867.34
2022-12-04T04:38:19.370Z,100876.50
2022-12-04T04:41:04.456Z,100878.50
2022-12-04T04:43:49.391Z,100877.66
2022-12-04T04:46:25.090Z,100873.34
2022-12-04T04:48:57.410Z,100872.50
2022-12-04T04:51:25.570Z,100873.66
2022-12-04T04:53:56.314Z,100873.06
2022-12-04T04:56:22.920Z,100869.66
2022-12-04T04:58:49.509Z,100870.03
2022-12-04T05:01:19.753Z,100873.22
2022-12-04T05:03:46.487Z,100871.34
2022-12-04T05:06:13.307Z,100874.34
2022-12-04T05:08:39.924Z,100875.66
2022-12-04T05:11:06.847Z,100867.34
2022-12-04T05:13:33.847Z,100860.88
2022-12-04T05:16:02.999Z,100868.75
2022-12-04T05:18:30.277Z,100860.75
2022-12-04T05:20:57.374Z,100849.03
2022-12-04T05:23:25.663Z,100858.63
2022-12-04T05:26:02.126Z,100856.34
2022-12-04T05:28:29.046Z,100853.91
2022-12-04T05:31:01.448Z,100852.75
2022-12-04T05:33:29.725Z,100859.28
2022-12-04T05:36:01.285Z,100851.03
2022-12-04T05:38:28.480Z,100863.16
2022-12-04T05:40:55.020Z,100851.03
2022-12-04T05:43:21.612Z,100851.44
2022-12-04T05:45:48.202Z,100852.88
2022-12-04T05:48:15.399Z,100853.59
2022-12-04T05:50:42.325Z,100843.31
2022-12-04T05:53:09.203Z,100845.28
2022-12-04T05:55:35.909Z,100837.28
2022-12-04T05:58:03.871Z,100844.59
2022-12-04T06:00:31.023Z,100857.63
2022-12-04T06:02:57.750Z,100848.16
2022-12-04T06:05:24.295Z,100845.88
2022-12-04T06:07:50.933Z,100850.44
2022-12-04T06:10:17.538Z,100848.88
2022-12-04T06:12:44.192Z,100847.88
2022-12-04T06:15:10.913Z,100845.00
2022-12-04T06:17:37.538Z,100846.16
2022-12-04T06:20:10.955Z,100854.47
2022-12-04T06:22:38.321Z,100852.31
2022-12-04T06:25:05.374Z,100856.19
2022-12-04T06:27:32.026Z,100851.47
2022-12-04T06:29:59.149Z,100855.03
2022-12-04T06:32:25.836Z,100847.88
2022-12-04T06:34:54.156Z,100851.59
2022-12-04T06:37:22.959Z,100847.03
2022-12-04T06:39:49.503Z,100842.44
2022-12-04T06:42:16.264Z,100853.19
2022-12-04T06:44:42.801Z,100846.13
2022-12-04T06:47:09.489Z,100845.88
2022-12-04T06:49:36.244Z,100846.72
2022-12-04T06:52:03.417Z,100843.56
2022-12-04T06:54:29.980Z,100855.19
2022-12-04T06:56:56.770Z,100859.91
2022-12-04T06:59:23.768Z,100853.16
2022-12-04T07:01:50.588Z,100859.91
2022-12-04T07:04:17.330Z,100854.47
2022-12-04T07:06:44.004Z,100856.75
2022-12-04T07:09:15.615Z,100854.03
2022-12-04T07:11:43.503Z,100852.44
2022-12-04T07:14:11.543Z,100856.63
2022-12-04T07:16:41.964Z,100858.16
2022-12-04T07:19:13.557Z,100870.50
2022-12-04T07:21:40.460Z,100867.78
2022-12-04T07:24:07.134Z,100857.31
2022-12-04T07:26:34.006Z,100862.91
2022-12-04T07:29:00.615Z,100867.91
2022-12-04T07:31:29.464Z,100866.19
2022-12-04T07:33:57.232Z,100862.75
2022-12-04T07:36:25.492Z,100863.31
2022-12-04T07:38:52.493Z,100875.78
2022-12-04T07:41:19.665Z,100864.06
2022-12-04T07:43:46.938Z,100872.50
2022-12-04T07:46:17.122Z,100880.53
2022-12-04T07:48:44.109Z,100879.06
2022-12-04T07:51:16.090Z,100882.66
2022-12-04T07:53:43.362Z,100882.38
2022-12-04T07:56:11.082Z,100876.22
2022-12-04T07:58:38.084Z,100879.38
2022-12-04T08:01:07.023Z,100877.94
2022-12-04T08:03:33.679Z,100876.50
2022-12-04T08:06:01.621Z,100876.78
2022-12-04T08:08:28.557Z,100877.94
2022-12-04T08:10:55.716Z,100870.47
2022-12-04T08:13:22.384Z,100872.59
2022-12-04T08:15:48.943Z,100871.59
2022-12-04T08:18:15.641Z,100875.34
2022-12-04T08:20:42.258Z,100882.53
2022-12-04T08:23:08.986Z,100890.53
2022-12-04T08:25:39.384Z,100886.81
2022-12-04T08:28:06.978Z,100887.66
2022-12-04T08:30:34.735Z,100878.50
2022-12-04T08:33:01.965Z,100883.94
2022-12-04T08:35:28.619Z,100882.09
2022-12-04T08:37:55.516Z,100893.81
2022-12-04T08:40:23.154Z,100886.78
2022-12-04T08:42:49.944Z,100879.81
2022-12-04T08:45:16.518Z,100884.81
2022-12-04T08:47:45.845Z,100876.22
2022-12-04T08:50:15.981Z,100880.22
2022-12-04T08:52:42.498Z,100882.38
2022-12-04T08:55:09.479Z,100877.50
2022-12-04T08:57:35.975Z,100883.94
2022-12-04T09:00:02.663Z,100890.81
2022-12-04T09:02:29.224Z,100895.25
2022-12-04T09:04:55.836Z,100899.09
2022-12-04T09:07:22.459Z,100898.25
2022-12-04T09:09:49.020Z,100892.97
2022-12-04T09:12:15.554Z,100900.84
2022-12-04T09:14:42.112Z,100894.25
2022-12-04T09:17:08.575Z,100889.94
2022-12-04T09:19:35.938Z,100899.28
2022-12-04T09:22:03.164Z,100899.09
2022-12-04T09:24:30.629Z,100897.69
2022-12-04T09:26:58.476Z,100889.97
2022-12-04T09:29:26.088Z,100902.28
2022-12-04T09:31:52.801Z,100897.56
2022-12-04T09:34:19.521Z,100887.38
2022-12-04T09:36:46.362Z,100886.22
2022-12-04T09:39:12.900Z,100885.38
2022-12-04T09:41:55.467Z,100892.50
2022-12-04T09:44:33.894Z,100895.41
2022-12-04T09:47:26.413Z,100890.94
2022-12-04T09:50:03.385Z,100890.22
2022-12-04T09:52:49.692Z,100887.06
2022-12-04T09:55:32.238Z,100881.44
2022-12-04T09:58:02.622Z,100878.34
2022-12-04T10:00:31.365Z,100869.88
2022-12-04T10:03:07.603Z,100873.00
2022-12-04T10:06:14.753Z,100871.44
2022-12-04T10:08:45.318Z,100873.00
2022-12-04T10:11:14.804Z,100873.75
2022-12-04T10:14:03.335Z,100881.06
2022-12-04T10:16:45.625Z,100872.44
2022-12-04T10:19:41.985Z,100873.00
2022-12-04T10:22:57.824Z,100882.91
2022-12-04T10:25:26.741Z,100881.44
2022-12-04T10:28:06.629Z,100869.41
2022-12-04T10:30:36.766Z,100872.13
2022-12-04T10:33:15.511Z,100878.09
2022-12-04T10:35:45.610Z,100880.94
2022-12-04T10:38:29.357Z,100881.84
2022-12-04T10:41:03.132Z,100886.69
2022-12-04T10:43:49.886Z,100877.28
2022-12-04T10:46:27.282Z,100873.34
2022-12-04T10:49:04.545Z,100872.38
2022-12-04T10:51:39.482Z,100874.66
2022-12-04T10:54:15.190Z,100869.41
2022-12-04T10:57:01.402Z,100859.78
2022-12-04T10:59:29.002Z,100850.66
2022-12-04T11:02:19.286Z,100855.59
2022-12-04T11:04:57.027Z,100847.44
2022-12-04T11:07:30.117Z,100850.16
2022-12-04T11:10:03.210Z,100840.50
2022-12-04T11:12:31.070Z,100842.19
2022-12-04T11:15:07.195Z,100823.03
2022-12-04T11:17:34.196Z,100829.06
2022-12-04T11:20:05.019Z,100833.00
2022-12-04T11:22:32.277Z,100818.09
2022-12-04T11:24:59.680Z,100815.41
2022-12-04T11:27:34.149Z,100811.31
2022-12-04T11:30:07.714Z,100807.50
2022-12-04T11:32:35.420Z,100806.03
2022-12-04T11:35:12.975Z,100801.75
2022-12-04T11:37:45.218Z,100812.03
2022-12-04T11:40:18.881Z,100802.66
2022-12-04T11:42:59.440Z,100805.97
2022-12-04T11:45:26.027Z,100806.72
2022-12-04T11:47:58.995Z,100806.28
2022-12-04T11:50:39.204Z,100804.31
2022-12-04T11:53:15.045Z,100806.41
2022-12-04T11:56:07.284Z,100808.59
2022-12-04T11:58:55.256Z,100799.22
2022-12-04T12:01:59.640Z,100801.13
2022-12-04T12:04:36.933Z,100795.28
2022-12-04T12:07:12.469Z,100791.50
2022-12-04T12:09:59.840Z,100790.72
2022-12-04T12:12:56.448Z,100791.97
2022-12-04T12:15:56.297Z,100780.72
2022-12-04T12:18:41.427Z,100786.38
2022-12-04T12:21:21.505Z,100794.22
2022-12-04T12:24:15.035Z,100783.47
2022-12-04T12:26:55.734Z,100783.06
2022-12-04T12:29:46.900Z,100784.03
2022-12-04T12:32:43.557Z,100789.78
2022-12-04T12:35:35.975Z,100783.91
2022-12-04T12:38:09.973Z,100788.28
2022-12-04T12:40:55.434Z,100786.31
2022-12-04T12:43:24.752Z,100786.09
2022-12-04T12:46:10.613Z,100784.72
2022-12-04T12:49:17.956Z,100779.22
2022-12-04T12:52:03.920Z,100773.94
2022-12-04T12:54:39.563Z,100767.53
2022-12-04T12:57:13.009Z,100772.38
2022-12-04T12:59:46.650Z,100764.72
2022-12-04T13:02:27.315Z,100762.34
2022-12-04T13:04:58.770Z,100754.59
2022-12-04T13:07:25.282Z,100753.81
2022-12-04T13:10:03.543Z,100746.06
2022-12-04T13:12:41.045Z,100743.22
2022-12-04T13:15:14.446Z,100736.50
2022-12-04T13:17:42.530Z,100741.97
2022-12-04T13:20:18.052Z,100737.38
2022-12-04T13:23:03.649Z,100739.41
2022-12-04T13:25:57.426Z,100735.19
2022-12-04T13:28:54.838Z,100742.03
2022-12-04T13:31:41.295Z,100746.81
2022-12-04T13:34:39.104Z,100742.38
2022-12-04T13:37:27.485Z,100754.59
2022-12-04T13:40:18.233Z,100751.47
2022-12-04T13:42:44.918Z,100759.66
2022-12-04T13:45:27.538Z,100765.88
2022-12-04T13:48:00.050Z,100767.44
2022-12-04T13:50:36.400Z,100768.13
2022-12-04T13:53:04.070Z,100774.06
2022-12-04T13:55:37.797Z,100765.16
2022-12-04T13:58:10.232Z,100772.75
2022-12-04T14:00:41.641Z,100768.78
2022-12-04T14:03:25.576Z,100758.56
2022-12-04T14:05:52.652Z,100769.34
2022-12-04T14:08:22.567Z,100763.25
2022-12-04T14:11:14.373Z,100763.41
2022-12-04T14:13:50.789Z,100765.97
2022-12-04T14:16:24.778Z,100767.22
2022-12-04T14:19:26.572Z,100760.59
2022-12-04T14:21:54.140Z,100755.47
2022-12-04T14:24:37.822Z,100758.19
2022-12-04T14:27:42.718Z,100760.66
2022-12-04T14:30:39.163Z,100771.41
2022-12-04T14:33:17.722Z,100757.53
2022-12-04T14:35:49.574Z,100768.06
2022-12-04T14:38:22.206Z,100756.53
2022-12-04T14:40:58.858Z,100757.22
2022-12-04T14:43:30.785Z,100757.81
2022-12-04T14:46:30.623Z,100756.19
2022-12-04T14:49:13.196Z,100752.44
2022-12-04T14:52:23.661Z,100757.56
2022-12-04T14:55:07.274Z,100748.28
2022-12-04T14:57:46.299Z,100750.00
2022-12-04T15:00:19.028Z,100745.44
2022-12-04T15:02:47.917Z,100751.19
2022-12-04T15:05:31.738Z,100752.81
2022-12-04T15:08:05.561Z,100753.19
2022-12-04T15:10:53.769Z,100757.19
2022-12-04T15:13:30.585Z,100753.63
2022-12-04T15:15:57.462Z,100758.84
2022-12-04T15:18:24.201Z,100741.19
2022-12-04T15:20:53.829Z,100746.13
2022-12-04T15:23:26.419Z,100737.66
2022-12-04T15:25:55.606Z,100751.56
2022-12-04T15:28:28.157Z,100740.94
2022-12-04T15:30:57.591Z,100741.19
2022-12-04T15:33:29.099Z,100747.81
2022-12-04T15:36:01.835Z,100760.97
2022-12-04T15:38:28.789Z,100754.66
2022-12-04T15:40:58.309Z,100753.47
2022-12-04T15:43:40.268Z,100759.69
2022-12-04T15:46:24.879Z,100757.53
2022-12-04T15:48:51.582Z,100753.25
2022-12-04T15:51:21.305Z,100761.66
2022-12-04T15:53:48.225Z,100759.03
2022-12-04T15:56:21.462Z,100768.53
2022-12-04T15:58:58.320Z,100760.06
2022-12-04T16:01:26.258Z,100763.72
2022-12-04T16:03:55.508Z,100778.50
2022-12-04T16:06:23.504Z,100770.56
2022-12-04T16:08:54.824Z,100768.06
2022-12-04T16:11:28.251Z,100765.81
2022-12-04T16:14:12.900Z,100757.22
2022-12-04T16:16:43.509Z,100768.66
2022-12-04T16:19:33.553Z,100764.28
2022-12-04T16:22:09.455Z,100770.47
2022-12-04T16:24:36.138Z,100774.38
2022-12-04T16:27:05.959Z,100780.81
2022-12-04T16:29:32.709Z,100778.81
2022-12-04T16:32:03.071Z,100781.38
2022-12-04T16:34:31.027Z,100778.34
2022-12-04T16:36:57.645Z,100784.16
2022-12-04T16:39:24.198Z,100773.19
2022-12-04T16:41:50.766Z,100772.66
2022-12-04T16:44:18.264Z,100773.75
2022-12-04T16:46:44.982Z,100782.06
2022-12-04T16:49:12.873Z,100783.06
2022-12-04T16:51:46.352Z,100787.13
2022-12-04T16:54:13.689Z,100784.78
2022-12-04T16:56:40.632Z,100799.03
2022-12-04T16:59:11.919Z,100792.94
2022-12-04T17:01:43.937Z,100786.75
2022-12-04T17:04:10.754Z,100801.75
2022-12-04T17:06:37.338Z,100800.31
2022-12-04T17:09:04.700Z,100800.63
2022-12-04T17:11:31.569Z,100796.38
2022-12-04T17:13:58.388Z,100801.94
2022-12-04T17:16:25.340Z,100795.06
2022-12-04T17:18:52.215Z,100804.34
2022-12-04T17:21:18.894Z,100808.41
2022-12-04T17:23:45.536Z,100809.13
2022-12-04T17:26:14.582Z,100810.03
2022-12-04T17:28:41.526Z,100804.06
2022-12-04T17:31:17.587Z,100813.22
2022-12-04T17:33:45.432Z,100811.34
2022-12-04T17:36:17.279Z,100817.59
2022-12-04T17:38:44.476Z,100813.13
2022-12-04T17:41:16.042Z,100819.75
2022-12-04T17:43:43.844Z,100814.41
2022-12-04T17:46:15.908Z,100828.25
2022-12-04T17:48:42.562Z,100824.66
2022-12-04T17:51:19.249Z,100820.59
2022-12-04T17:53:46.959Z,100821.16
2022-12-04T17:56:17.370Z,100820.66
2022-12-04T17:58:45.653Z,100824.94
2022-12-04T18:01:26.680Z,100822.66
2022-12-04T18:03:56.438Z,100825.38
2022-12-04T18:06:34.897Z,100829.50
2022-12-04T18:09:02.277Z,100818.88
2022-12-04T18:11:30.671Z,100815.88
2022-12-04T18:14:11.459Z,100817.47
2022-12-04T18:16:42.127Z,100812.94
2022-12-04T18:19:08.898Z,100808.47
2022-12-04T18:21:35.973Z,100814.22
2022-12-04T18:24:04.365Z,100804.81
2022-12-04T18:26:37.010Z,100799.06
2022-12-04T18:29:04.727Z,100808.38
2022-12-04T18:31:31.731Z,100795.88
2022-12-04T18:33:58.467Z,100802.78
2022-12-04T18:36:29.067Z,100794.03
2022-12-04T18:38:58.083Z,100794.25
2022-12-04T18:41:26.569Z,100793.06
2022-12-04T18:43:53.656Z,100794.84
2022-12-04T18:46:21.248Z,100794.56
2022-12-04T18:48:49.745Z,100798.84
2022-12-04T18:51:23.087Z,100787.19
2022-12-04T18:53:51.790Z,100795.66
2022-12-04T18:56:19.020Z,100796.19
2022-12-04T18:58:46.651Z,100798.53
2022-12-04T19:01:18.857Z,100793.50
2022-12-04T19:03:47.045Z,100798.41
2022-12-04T19:06:14.010Z,100801.97
2022-12-04T19:08:43.180Z,100794.22
2022-12-04T19:11:13.842Z,100792.44
2022-12-04T19:13:41.188Z,100806.72
2022-12-04T19:16:15.966Z,100814.16
2022-12-04T19:18:45.270Z,100807.50
2022-12-04T19:21:14.108Z,100803.84
2022-12-04T19:23:42.578Z,100802.31
2022-12-04T19:26:09.162Z,100804.13
2022-12-04T19:28:36.369Z,100803.44
2022-12-04T19:31:03.568Z,100802.41
2022-12-04T19:33:30.505Z,100801.50
2022-12-04T19:36:05.001Z,100808.91
2022-12-04T19:38:33.670Z,100801.81
2022-12-04T19:41:14.687Z,100797.72
2022-12-04T19:43:44.037Z,100805.47
2022-12-04T19:46:13.164Z,100808.56
2022-12-04T19:48:40.342Z,100811.34
2022-12-04T19:51:10.458Z,100811.47
2022-12-04T19:53:40.844Z,100812.31
2022-12-04T19:56:11.458Z,100799.94
2022-12-04T19:58:38.201Z,100807.38
2022-12-04T20:01:07.112Z,100801.66
2022-12-04T20:03:35.242Z,100816.16
2022-12-04T20:06:07.229Z,100807.50
2022-12-04T20:08:34.667Z,100810.81
2022-12-04T20:11:02.999Z,100815.56
2022-12-04T20:13:29.635Z,100815.69
2022-12-04T20:16:00.323Z,100821.31
2022-12-04T20:18:27.029Z,100816.66
2022-12-04T20:20:58.766Z,100818.28
2022-12-04T20:23:25.845Z,100815.72
2022-12-04T20:25:52.509Z,100822.41
2022-12-04T20:28:19.950Z,100822.91
2022-12-04T20:30:46.989Z,100818.41
2022-12-04T20:33:13.675Z,100823.66
2022-12-04T20:35:40.368Z,100820.44
2022-12-04T20:38:07.135Z,100815.97
2022-12-04T20:40:34.347Z,100814.94
2022-12-04T20:43:00.903Z,100810.69
2022-12-04T20:45:27.545Z,100816.81
2022-12-04T20:47:55.009Z,100799.63
2022-12-04T20:50:21.722Z,100809.00
2022-12-04T20:52:48.546Z,100807.59
2022-12-04T20:55:15.201Z,100809.19
2022-12-04T20:57:41.843Z,100808.19
2022-12-04T21:00:09.006Z,100809.16
2022-12-04T21:02:36.110Z,100810.47
2022-12-04T21:05:02.691Z,100810.91
2022-12-04T21:07:30.071Z,100807.78
2022-12-04T21:09:58.745Z,100806.94
2022-12-04T21:12:55.093Z,100799.31
2022-12-04T21:15:40.244Z,100801.69
2022-12-04T21:18:06.914Z,100800.56
2022-12-04T21:20:33.461Z,100797.50
2022-12-04T21:23:00.015Z,100797.72
2022-12-04T21:25:27.639Z,100803.84
2022-12-04T21:27:54.824Z,100796.59
2022-12-04T21:30:21.365Z,100801.41
2022-12-04T21:32:47.960Z,100799.22
2022-12-04T21:35:14.526Z,100801.03
2022-12-04T21:37:41.340Z,100803.25
2022-12-04T21:40:08.600Z,100792.59
2022-12-04T21:42:35.381Z,100799.47
2022-12-04T21:45:04.163Z,100789.13
2022-12-04T21:47:31.229Z,100792.56
2022-12-04T21:49:58.265Z,100790.91
2022-12-04T21:52:25.051Z,100789.47
2022-12-04T21:54:53.085Z,100790.66
2022-12-04T21:57:20.544Z,100793.81
2022-12-04T21:59:47.334Z,100801.16
2022-12-04T22:02:15.345Z,100790.53
2022-12-04T22:04:42.667Z,100795.69
2022-12-04T22:07:09.932Z,100792.88
2022-12-04T22:09:37.390Z,100795.69
2022-12-04T22:12:26.298Z,100805.88
2022-12-04T22:14:51.096Z,100813.25
2022-12-04T22:17:17.897Z,100814.69
2022-12-04T22:19:44.513Z,100812.47
2022-12-04T22:22:11.158Z,100809.66
2022-12-04T22:24:37.755Z,100815.56
2022-12-04T22:27:04.339Z,100809.19
2022-12-04T22:32:18.685Z,100819.69
2022-12-04T22:34:48.519Z,100816.34
2022-12-04T22:37:15.165Z,100828.63
2022-12-04T22:39:41.682Z,100819.00
2022-12-04T22:42:08.261Z,100820.72
2022-12-04T22:44:34.856Z,100824.59
2022-12-04T22:47:01.648Z,100831.09
2022-12-04T22:49:28.529Z,100826.44
2022-12-04T22:51:55.221Z,100832.63
2022-12-04T22:54:21.877Z,100834.94
2022-12-04T22:56:48.462Z,100829.47
2022-12-04T22:59:15.039Z,100831.81
2022-12-04T23:01:41.668Z,100839.97
2022-12-04T23:04:09.644Z,100843.50
2022-12-04T23:06:36.204Z,100833.44
2022-12-04T23:09:11.237Z,100836.28
2022-12-04T23:11:39.406Z,100830.09
2022-12-04T23:14:08.637Z,100838.34
2022-12-04T23:16:37.332Z,100839.06
2022-12-04T23:19:05.732Z,100830.81
2022-12-04T23:21:32.674Z,100832.59
2022-12-04T23:23:59.796Z,100839.13
2022-12-04T23:26:32.428Z,100841.25
2022-12-04T23:28:59.869Z,100836.66
2022-12-04T23:31:26.489Z,100835.72
2022-12-04T23:33:53.069Z,100840.16
2022-12-04T23:36:20.063Z,100830.81
2022-12-04T23:38:47.344Z,100831.53
2022-12-04T23:41:18.228Z,100832.84
2022-12-04T23:43:45.803Z,100829.13
2022-12-04T23:46:16.274Z,100831.75
2022-12-04T23:48:44.716Z,100823.03
2022-12-04T23:51:13.708Z,100829.00
2022-12-04T23:53:40.374Z,100829.97
2022-12-04T23:56:10.935Z,100836.25
2022-12-04T23:58:38.399Z,100825.09
